Covell, Illinois
Current Conditions -  °F | °C
As of 6:56 PM on Saturday 25 Oct 2014 (Local Time) from KBMI Reporting Station
Clear Clear  
Wind Chill: 64°   Ceiling: Unl
Heat Index: 64°   Visibility: 10mi
Dew Point: 41°   Wind: 7mph
Humidity: 43%   Direction: 280°W
Pressure: 30"   Gusts: NA
Location:  40.4664°N, 88.9822°W
Report Text: KBMI 252356Z 28006KT 10SM CLR 18/05 A3000 RMK AO2 55000 T01770050 10238 20183 SLP158
Loading
Personal Weather Stations






























Interactive Weather Map
Tropical Storm Tracking
New forecast layout! Learn more

10-Day Weather Forecast

Advertisements
Track Severe Weather on mobile